sensor_id;sensor_type;location;lat;lon;timestamp;P1;durP1;ratioP1;P2;durP2;ratioP2
41693;SDS011;27377;50.666;9.150;2022-09-09T00:04:41;3.70;;;1.00;;
41693;SDS011;27377;50.666;9.150;2022-09-09T00:07:21;2.92;;;0.90;;
41693;SDS011;27377;50.666;9.150;2022-09-09T00:10:51;3.90;;;0.90;;
41693;SDS011;27377;50.666;9.150;2022-09-09T00:13:01;4.75;;;1.00;;
41693;SDS011;27377;50.666;9.150;2022-09-09T00:15:55;3.05;;;0.70;;
41693;SDS011;27377;50.666;9.150;2022-09-09T00:21:14;4.75;;;1.10;;
41693;SDS011;27377;50.666;9.150;2022-09-09T00:23:44;4.30;;;0.98;;
41693;SDS011;27377;50.666;9.150;2022-09-09T00:29:03;2.40;;;0.80;;
41693;SDS011;27377;50.666;9.150;2022-09-09T00:31:45;3.90;;;1.00;;
41693;SDS011;27377;50.666;9.150;2022-09-09T00:34:15;3.70;;;1.10;;
41693;SDS011;27377;50.666;9.150;2022-09-09T00:36:46;3.40;;;0.80;;
41693;SDS011;27377;50.666;9.150;2022-09-09T00:39:39;4.77;;;0.90;;
41693;SDS011;27377;50.666;9.150;2022-09-09T00:42:09;3.40;;;1.00;;
41693;SDS011;27377;50.666;9.150;2022-09-09T00:49:57;3.58;;;0.80;;
41693;SDS011;27377;50.666;9.150;2022-09-09T00:55:13;4.88;;;1.08;;
41693;SDS011;27377;50.666;9.150;2022-09-09T00:57:46;4.03;;;0.90;;
41693;SDS011;27377;50.666;9.150;2022-09-09T01:00:21;2.63;;;0.85;;
41693;SDS011;27377;50.666;9.150;2022-09-09T01:03:06;5.05;;;0.90;;
41693;SDS011;27377;50.666;9.150;2022-09-09T01:08:14;4.97;;;0.87;;
41693;SDS011;27377;50.666;9.150;2022-09-09T01:10:55;3.30;;;0.90;;
41693;SDS011;27377;50.666;9.150;2022-09-09T01:13:27;3.63;;;1.00;;
41693;SDS011;27377;50.666;9.150;2022-09-09T01:15:58;3.88;;;1.10;;
41693;SDS011;27377;50.666;9.150;2022-09-09T01:18:47;4.45;;;1.13;;
41693;SDS011;27377;50.666;9.150;2022-09-09T01:21:30;4.47;;;1.15;;
41693;SDS011;27377;50.666;9.150;2022-09-09T01:24:18;5.13;;;1.20;;
41693;SDS011;27377;50.666;9.150;2022-09-09T01:27:01;2.70;;;1.00;;
41693;SDS011;27377;50.666;9.150;2022-09-09T01:29:28;4.63;;;1.13;;
41693;SDS011;27377;50.666;9.150;2022-09-09T01:31:58;3.70;;;0.90;;
41693;SDS011;27377;50.666;9.150;2022-09-09T01:34:30;3.40;;;0.90;;
41693;SDS011;27377;50.666;9.150;2022-09-09T01:37:02;5.20;;;0.97;;
41693;SDS011;27377;50.666;9.150;2022-09-09T01:39:33;3.97;;;1.00;;
41693;SDS011;27377;50.666;9.150;2022-09-09T01:42:00;4.95;;;1.05;;
41693;SDS011;27377;50.666;9.150;2022-09-09T01:44:27;4.53;;;1.20;;
41693;SDS011;27377;50.666;9.150;2022-09-09T01:46:54;4.72;;;0.98;;
41693;SDS011;27377;50.666;9.150;2022-09-09T01:49:20;4.30;;;1.00;;
41693;SDS011;27377;50.666;9.150;2022-09-09T01:51:48;4.00;;;0.98;;
41693;SDS011;27377;50.666;9.150;2022-09-09T01:54:16;5.53;;;0.98;;
41693;SDS011;27377;50.666;9.150;2022-09-09T02:07:47;2.80;;;1.00;;
41693;SDS011;27377;50.666;9.150;2022-09-09T02:10:21;4.55;;;1.00;;
41693;SDS011;27377;50.666;9.150;2022-09-09T02:12:55;4.25;;;0.95;;
41693;SDS011;27377;50.666;9.150;2022-09-09T02:18:04;3.95;;;0.90;;
41693;SDS011;27377;50.666;9.150;2022-09-09T02:20:33;5.80;;;1.20;;
41693;SDS011;27377;50.666;9.150;2022-09-09T02:23:02;4.03;;;1.00;;
41693;SDS011;27377;50.666;9.150;2022-09-09T02:25:30;4.28;;;0.90;;
41693;SDS011;27377;50.666;9.150;2022-09-09T02:27:57;4.05;;;1.08;;
41693;SDS011;27377;50.666;9.150;2022-09-09T02:30:27;4.60;;;1.10;;
41693;SDS011;27377;50.666;9.150;2022-09-09T02:32:54;6.05;;;1.10;;
41693;SDS011;27377;50.666;9.150;2022-09-09T02:35:23;5.00;;;1.20;;
41693;SDS011;27377;50.666;9.150;2022-09-09T02:37:51;4.63;;;1.17;;
41693;SDS011;27377;50.666;9.150;2022-09-09T02:40:23;4.57;;;1.20;;
41693;SDS011;27377;50.666;9.150;2022-09-09T02:42:49;3.93;;;1.20;;
41693;SDS011;27377;50.666;9.150;2022-09-09T02:45:16;5.07;;;1.10;;
41693;SDS011;27377;50.666;9.150;2022-09-09T02:48:03;5.53;;;1.10;;
41693;SDS011;27377;50.666;9.150;2022-09-09T02:53:39;3.83;;;1.00;;
41693;SDS011;27377;50.666;9.150;2022-09-09T02:56:15;4.83;;;1.17;;
41693;SDS011;27377;50.666;9.150;2022-09-09T02:58:45;4.20;;;1.17;;
41693;SDS011;27377;50.666;9.150;2022-09-09T03:01:11;4.33;;;1.20;;
41693;SDS011;27377;50.666;9.150;2022-09-09T03:03:37;3.72;;;1.15;;
41693;SDS011;27377;50.666;9.150;2022-09-09T03:06:03;3.33;;;1.05;;
41693;SDS011;27377;50.666;9.150;2022-09-09T03:08:30;3.88;;;1.00;;
41693;SDS011;27377;50.666;9.150;2022-09-09T03:10:58;4.47;;;1.15;;
41693;SDS011;27377;50.666;9.150;2022-09-09T03:13:26;7.53;;;1.15;;
41693;SDS011;27377;50.666;9.150;2022-09-09T03:15:52;6.37;;;1.53;;
41693;SDS011;27377;50.666;9.150;2022-09-09T03:18:17;7.07;;;1.20;;
41693;SDS011;27377;50.666;9.150;2022-09-09T03:20:43;3.80;;;1.33;;
41693;SDS011;27377;50.666;9.150;2022-09-09T03:23:08;4.57;;;1.60;;
41693;SDS011;27377;50.666;9.150;2022-09-09T03:25:34;5.73;;;1.50;;
41693;SDS011;27377;50.666;9.150;2022-09-09T03:28:00;5.00;;;1.70;;
41693;SDS011;27377;50.666;9.150;2022-09-09T03:30:30;8.85;;;2.05;;
41693;SDS011;27377;50.666;9.150;2022-09-09T03:32:55;5.57;;;1.60;;
41693;SDS011;27377;50.666;9.150;2022-09-09T03:35:21;5.18;;;1.70;;
41693;SDS011;27377;50.666;9.150;2022-09-09T03:37:47;5.55;;;1.90;;
41693;SDS011;27377;50.666;9.150;2022-09-09T03:40:13;5.67;;;1.73;;
41693;SDS011;27377;50.666;9.150;2022-09-09T03:42:39;4.05;;;1.35;;
41693;SDS011;27377;50.666;9.150;2022-09-09T03:45:06;4.25;;;1.33;;
41693;SDS011;27377;50.666;9.150;2022-09-09T03:47:34;6.20;;;1.42;;
41693;SDS011;27377;50.666;9.150;2022-09-09T03:49:59;4.47;;;1.20;;
41693;SDS011;27377;50.666;9.150;2022-09-09T03:52:25;4.10;;;1.00;;
41693;SDS011;27377;50.666;9.150;2022-09-09T03:54:51;4.87;;;1.00;;
41693;SDS011;27377;50.666;9.150;2022-09-09T03:57:18;5.00;;;1.27;;
41693;SDS011;27377;50.666;9.150;2022-09-09T03:59:44;5.03;;;1.10;;
41693;SDS011;27377;50.666;9.150;2022-09-09T04:02:09;4.07;;;1.20;;
41693;SDS011;27377;50.666;9.150;2022-09-09T04:04:35;7.53;;;1.20;;
41693;SDS011;27377;50.666;9.150;2022-09-09T04:07:00;2.80;;;0.90;;
41693;SDS011;27377;50.666;9.150;2022-09-09T04:09:26;4.67;;;1.20;;
41693;SDS011;27377;50.666;9.150;2022-09-09T04:11:52;5.80;;;1.27;;
41693;SDS011;27377;50.666;9.150;2022-09-09T04:14:18;5.15;;;1.17;;
41693;SDS011;27377;50.666;9.150;2022-09-09T04:16:44;5.15;;;1.17;;
41693;SDS011;27377;50.666;9.150;2022-09-09T04:19:10;5.50;;;1.10;;
41693;SDS011;27377;50.666;9.150;2022-09-09T04:21:38;4.88;;;1.20;;
41693;SDS011;27377;50.666;9.150;2022-09-09T04:24:05;4.07;;;1.13;;
41693;SDS011;27377;50.666;9.150;2022-09-09T04:26:32;5.53;;;1.20;;
41693;SDS011;27377;50.666;9.150;2022-09-09T04:28:58;3.95;;;1.10;;
41693;SDS011;27377;50.666;9.150;2022-09-09T04:31:24;6.73;;;1.30;;
41693;SDS011;27377;50.666;9.150;2022-09-09T04:33:49;6.82;;;1.40;;
41693;SDS011;27377;50.666;9.150;2022-09-09T04:36:16;3.70;;;1.10;;
41693;SDS011;27377;50.666;9.150;2022-09-09T04:38:43;5.30;;;1.30;;
41693;SDS011;27377;50.666;9.150;2022-09-09T04:41:09;5.60;;;1.45;;
41693;SDS011;27377;50.666;9.150;2022-09-09T04:43:36;5.57;;;1.15;;
41693;SDS011;27377;50.666;9.150;2022-09-09T04:46:02;4.75;;;1.50;;
41693;SDS011;27377;50.666;9.150;2022-09-09T04:48:28;4.10;;;1.23;;
41693;SDS011;27377;50.666;9.150;2022-09-09T04:50:55;4.97;;;1.47;;
41693;SDS011;27377;50.666;9.150;2022-09-09T04:53:21;6.43;;;1.48;;
41693;SDS011;27377;50.666;9.150;2022-09-09T04:55:47;4.63;;;1.03;;
41693;SDS011;27377;50.666;9.150;2022-09-09T04:58:13;4.90;;;1.17;;
41693;SDS011;27377;50.666;9.150;2022-09-09T05:00:39;4.03;;;1.20;;
41693;SDS011;27377;50.666;9.150;2022-09-09T05:03:06;8.50;;;1.40;;
41693;SDS011;27377;50.666;9.150;2022-09-09T05:05:34;5.68;;;1.45;;
41693;SDS011;27377;50.666;9.150;2022-09-09T05:08:03;3.50;;;1.10;;
41693;SDS011;27377;50.666;9.150;2022-09-09T05:10:30;5.43;;;1.10;;
41693;SDS011;27377;50.666;9.150;2022-09-09T05:12:56;4.95;;;1.27;;
41693;SDS011;27377;50.666;9.150;2022-09-09T05:15:22;6.20;;;1.13;;
41693;SDS011;27377;50.666;9.150;2022-09-09T05:17:48;6.22;;;1.30;;
41693;SDS011;27377;50.666;9.150;2022-09-09T05:20:14;5.90;;;1.10;;
41693;SDS011;27377;50.666;9.150;2022-09-09T05:22:39;5.43;;;1.17;;
41693;SDS011;27377;50.666;9.150;2022-09-09T05:25:05;5.35;;;1.40;;
41693;SDS011;27377;50.666;9.150;2022-09-09T05:27:33;5.35;;;1.48;;
41693;SDS011;27377;50.666;9.150;2022-09-09T05:29:59;6.78;;;1.30;;
41693;SDS011;27377;50.666;9.150;2022-09-09T05:32:24;5.63;;;1.10;;
41693;SDS011;27377;50.666;9.150;2022-09-09T05:34:50;4.83;;;1.20;;
41693;SDS011;27377;50.666;9.150;2022-09-09T05:37:17;6.00;;;1.20;;
41693;SDS011;27377;50.666;9.150;2022-09-09T05:39:43;5.30;;;1.30;;
41693;SDS011;27377;50.666;9.150;2022-09-09T05:42:09;5.18;;;1.38;;
41693;SDS011;27377;50.666;9.150;2022-09-09T05:44:35;5.07;;;1.40;;
41693;SDS011;27377;50.666;9.150;2022-09-09T05:47:00;5.00;;;1.20;;
41693;SDS011;27377;50.666;9.150;2022-09-09T05:49:26;5.40;;;1.17;;
41693;SDS011;27377;50.666;9.150;2022-09-09T05:51:51;5.10;;;1.20;;
41693;SDS011;27377;50.666;9.150;2022-09-09T05:54:17;4.25;;;1.08;;
41693;SDS011;27377;50.666;9.150;2022-09-09T05:56:43;5.22;;;1.23;;
41693;SDS011;27377;50.666;9.150;2022-09-09T05:59:09;4.95;;;1.20;;
41693;SDS011;27377;50.666;9.150;2022-09-09T06:01:36;6.22;;;1.27;;
41693;SDS011;27377;50.666;9.150;2022-09-09T06:04:05;5.45;;;1.50;;
41693;SDS011;27377;50.666;9.150;2022-09-09T06:06:32;9.70;;;1.40;;
41693;SDS011;27377;50.666;9.150;2022-09-09T06:09:04;4.15;;;1.20;;
41693;SDS011;27377;50.666;9.150;2022-09-09T06:11:35;5.32;;;1.33;;
41693;SDS011;27377;50.666;9.150;2022-09-09T06:14:02;7.18;;;1.40;;
41693;SDS011;27377;50.666;9.150;2022-09-09T06:16:29;5.43;;;1.30;;
41693;SDS011;27377;50.666;9.150;2022-09-09T06:18:57;5.40;;;1.20;;
41693;SDS011;27377;50.666;9.150;2022-09-09T06:21:24;5.60;;;1.15;;
41693;SDS011;27377;50.666;9.150;2022-09-09T06:23:58;6.07;;;1.20;;
41693;SDS011;27377;50.666;9.150;2022-09-09T06:26:25;4.43;;;1.00;;
41693;SDS011;27377;50.666;9.150;2022-09-09T06:28:58;7.65;;;1.48;;
41693;SDS011;27377;50.666;9.150;2022-09-09T06:31:26;5.50;;;1.13;;
41693;SDS011;27377;50.666;9.150;2022-09-09T06:33:55;4.55;;;1.20;;
41693;SDS011;27377;50.666;9.150;2022-09-09T06:36:22;4.53;;;1.15;;
41693;SDS011;27377;50.666;9.150;2022-09-09T06:38:59;4.95;;;1.27;;
41693;SDS011;27377;50.666;9.150;2022-09-09T06:41:26;4.78;;;1.20;;
41693;SDS011;27377;50.666;9.150;2022-09-09T06:43:53;5.18;;;1.33;;
41693;SDS011;27377;50.666;9.150;2022-09-09T06:46:24;5.32;;;1.10;;
41693;SDS011;27377;50.666;9.150;2022-09-09T06:48:55;12.80;;;1.60;;
41693;SDS011;27377;50.666;9.150;2022-09-09T06:51:24;4.20;;;1.02;;
41693;SDS011;27377;50.666;9.150;2022-09-09T06:53:51;8.65;;;1.50;;
41693;SDS011;27377;50.666;9.150;2022-09-09T06:58:49;4.78;;;1.30;;
41693;SDS011;27377;50.666;9.150;2022-09-09T07:01:17;6.10;;;1.35;;
41693;SDS011;27377;50.666;9.150;2022-09-09T07:03:50;5.53;;;1.17;;
41693;SDS011;27377;50.666;9.150;2022-09-09T07:06:19;5.57;;;1.40;;
41693;SDS011;27377;50.666;9.150;2022-09-09T07:08:53;6.10;;;1.50;;
41693;SDS011;27377;50.666;9.150;2022-09-09T07:11:21;5.65;;;1.38;;
41693;SDS011;27377;50.666;9.150;2022-09-09T07:13:48;5.57;;;1.40;;
41693;SDS011;27377;50.666;9.150;2022-09-09T07:16:15;4.40;;;1.50;;
41693;SDS011;27377;50.666;9.150;2022-09-09T07:18:42;6.80;;;1.52;;
41693;SDS011;27377;50.666;9.150;2022-09-09T07:21:11;8.50;;;1.50;;
41693;SDS011;27377;50.666;9.150;2022-09-09T07:23:39;5.15;;;1.48;;
41693;SDS011;27377;50.666;9.150;2022-09-09T07:26:09;5.18;;;1.38;;
41693;SDS011;27377;50.666;9.150;2022-09-09T07:28:36;4.53;;;1.20;;
41693;SDS011;27377;50.666;9.150;2022-09-09T07:31:03;5.28;;;1.30;;
41693;SDS011;27377;50.666;9.150;2022-09-09T07:33:30;3.03;;;1.10;;
41693;SDS011;27377;50.666;9.150;2022-09-09T07:36:31;5.20;;;1.55;;
41693;SDS011;27377;50.666;9.150;2022-09-09T07:38:52;6.75;;;1.50;;
41693;SDS011;27377;50.666;9.150;2022-09-09T07:41:30;6.72;;;1.52;;
41693;SDS011;27377;50.666;9.150;2022-09-09T07:44:05;6.17;;;1.60;;
41693;SDS011;27377;50.666;9.150;2022-09-09T07:46:33;4.32;;;1.40;;
41693;SDS011;27377;50.666;9.150;2022-09-09T07:48:59;5.45;;;1.50;;
41693;SDS011;27377;50.666;9.150;2022-09-09T07:51:27;4.60;;;1.40;;
41693;SDS011;27377;50.666;9.150;2022-09-09T07:53:55;5.83;;;1.63;;
41693;SDS011;27377;50.666;9.150;2022-09-09T07:56:29;5.10;;;1.60;;
41693;SDS011;27377;50.666;9.150;2022-09-09T07:58:56;6.40;;;1.70;;
41693;SDS011;27377;50.666;9.150;2022-09-09T08:01:26;4.88;;;1.63;;
41693;SDS011;27377;50.666;9.150;2022-09-09T08:03:58;5.05;;;1.50;;
41693;SDS011;27377;50.666;9.150;2022-09-09T08:06:26;6.32;;;1.60;;
41693;SDS011;27377;50.666;9.150;2022-09-09T08:08:52;6.55;;;2.13;;
41693;SDS011;27377;50.666;9.150;2022-09-09T08:11:20;6.32;;;1.70;;
41693;SDS011;27377;50.666;9.150;2022-09-09T08:13:47;6.30;;;1.70;;
41693;SDS011;27377;50.666;9.150;2022-09-09T08:16:14;6.28;;;1.70;;
41693;SDS011;27377;50.666;9.150;2022-09-09T08:18:48;7.25;;;1.70;;
41693;SDS011;27377;50.666;9.150;2022-09-09T08:21:16;7.70;;;1.65;;
41693;SDS011;27377;50.666;9.150;2022-09-09T08:23:46;7.13;;;1.57;;
41693;SDS011;27377;50.666;9.150;2022-09-09T08:26:16;6.85;;;1.70;;
41693;SDS011;27377;50.666;9.150;2022-09-09T08:28:47;5.60;;;1.65;;
41693;SDS011;27377;50.666;9.150;2022-09-09T08:31:15;6.95;;;1.80;;
41693;SDS011;27377;50.666;9.150;2022-09-09T08:33:43;6.13;;;1.63;;
41693;SDS011;27377;50.666;9.150;2022-09-09T08:36:11;7.43;;;1.70;;
41693;SDS011;27377;50.666;9.150;2022-09-09T08:38:40;5.88;;;1.80;;
41693;SDS011;27377;50.666;9.150;2022-09-09T08:50:02;6.43;;;1.90;;
41693;SDS011;27377;50.666;9.150;2022-09-09T08:52:59;6.35;;;1.85;;
41693;SDS011;27377;50.666;9.150;2022-09-09T08:55:37;6.45;;;1.80;;
41693;SDS011;27377;50.666;9.150;2022-09-09T08:58:09;7.00;;;2.05;;
41693;SDS011;27377;50.666;9.150;2022-09-09T09:12:01;5.90;;;1.60;;
41693;SDS011;27377;50.666;9.150;2022-09-09T09:14:33;6.90;;;2.03;;
41693;SDS011;27377;50.666;9.150;2022-09-09T09:19:28;6.43;;;1.63;;
41693;SDS011;27377;50.666;9.150;2022-09-09T09:22:16;6.93;;;1.77;;
41693;SDS011;27377;50.666;9.150;2022-09-09T09:24:52;5.50;;;1.70;;
41693;SDS011;27377;50.666;9.150;2022-09-09T09:27:32;5.25;;;1.60;;
41693;SDS011;27377;50.666;9.150;2022-09-09T09:30:00;6.63;;;1.60;;
41693;SDS011;27377;50.666;9.150;2022-09-09T09:32:37;7.40;;;1.70;;
41693;SDS011;27377;50.666;9.150;2022-09-09T09:35:12;6.70;;;1.65;;
41693;SDS011;27377;50.666;9.150;2022-09-09T09:37:39;7.35;;;1.80;;
41693;SDS011;27377;50.666;9.150;2022-09-09T09:40:09;5.80;;;1.60;;
41693;SDS011;27377;50.666;9.150;2022-09-09T09:42:37;6.53;;;1.58;;
41693;SDS011;27377;50.666;9.150;2022-09-09T09:48:03;6.90;;;1.70;;
41693;SDS011;27377;50.666;9.150;2022-09-09T09:50:31;5.63;;;1.50;;
41693;SDS011;27377;50.666;9.150;2022-09-09T09:52:58;7.30;;;1.65;;
41693;SDS011;27377;50.666;9.150;2022-09-09T09:55:27;7.00;;;1.70;;
41693;SDS011;27377;50.666;9.150;2022-09-09T09:58:00;8.95;;;1.80;;
41693;SDS011;27377;50.666;9.150;2022-09-09T10:00:27;7.40;;;1.60;;
41693;SDS011;27377;50.666;9.150;2022-09-09T10:02:52;6.33;;;1.67;;
41693;SDS011;27377;50.666;9.150;2022-09-09T10:13:18;6.90;;;1.60;;
41693;SDS011;27377;50.666;9.150;2022-09-09T10:29:22;5.57;;;1.50;;
41693;SDS011;27377;50.666;9.150;2022-09-09T10:32:12;5.18;;;1.58;;
41693;SDS011;27377;50.666;9.150;2022-09-09T10:34:53;5.45;;;1.70;;
41693;SDS011;27377;50.666;9.150;2022-09-09T10:42:56;6.57;;;1.67;;
41693;SDS011;27377;50.666;9.150;2022-09-09T10:56:52;3.35;;;1.25;;
41693;SDS011;27377;50.666;9.150;2022-09-09T10:59:24;5.07;;;1.10;;
41693;SDS011;27377;50.666;9.150;2022-09-09T11:01:57;5.20;;;1.10;;
41693;SDS011;27377;50.666;9.150;2022-09-09T11:04:55;4.30;;;1.08;;
41693;SDS011;27377;50.666;9.150;2022-09-09T11:07:33;4.17;;;0.90;;
41693;SDS011;27377;50.666;9.150;2022-09-09T11:10:06;3.33;;;0.73;;
41693;SDS011;27377;50.666;9.150;2022-09-09T11:12:42;4.10;;;0.93;;
41693;SDS011;27377;50.666;9.150;2022-09-09T11:15:30;2.78;;;0.80;;
41693;SDS011;27377;50.666;9.150;2022-09-09T11:18:01;4.35;;;1.10;;
41693;SDS011;27377;50.666;9.150;2022-09-09T11:20:29;4.85;;;1.00;;
41693;SDS011;27377;50.666;9.150;2022-09-09T11:31:03;5.53;;;1.13;;
41693;SDS011;27377;50.666;9.150;2022-09-09T11:39:34;4.28;;;1.10;;
41693;SDS011;27377;50.666;9.150;2022-09-09T11:44:38;3.95;;;1.00;;
41693;SDS011;27377;50.666;9.150;2022-09-09T11:47:14;3.15;;;0.75;;
41693;SDS011;27377;50.666;9.150;2022-09-09T11:49:54;2.80;;;0.80;;
41693;SDS011;27377;50.666;9.150;2022-09-09T11:52:25;4.80;;;1.05;;
41693;SDS011;27377;50.666;9.150;2022-09-09T11:55:08;4.70;;;1.20;;
41693;SDS011;27377;50.666;9.150;2022-09-09T11:57:38;4.18;;;0.90;;
41693;SDS011;27377;50.666;9.150;2022-09-09T12:00:04;4.18;;;1.00;;
41693;SDS011;27377;50.666;9.150;2022-09-09T12:02:31;4.25;;;0.95;;
41693;SDS011;27377;50.666;9.150;2022-09-09T12:04:58;3.53;;;1.00;;
41693;SDS011;27377;50.666;9.150;2022-09-09T12:12:55;3.33;;;0.88;;
41693;SDS011;27377;50.666;9.150;2022-09-09T12:15:48;6.50;;;1.40;;
41693;SDS011;27377;50.666;9.150;2022-09-09T12:18:31;5.20;;;1.08;;
41693;SDS011;27377;50.666;9.150;2022-09-09T12:28:56;4.00;;;0.95;;
41693;SDS011;27377;50.666;9.150;2022-09-09T12:31:45;4.80;;;1.17;;
41693;SDS011;27377;50.666;9.150;2022-09-09T12:34:16;5.77;;;1.13;;
41693;SDS011;27377;50.666;9.150;2022-09-09T12:36:43;3.60;;;0.95;;
41693;SDS011;27377;50.666;9.150;2022-09-09T12:39:24;4.00;;;1.00;;
41693;SDS011;27377;50.666;9.150;2022-09-09T12:42:00;4.63;;;1.20;;
41693;SDS011;27377;50.666;9.150;2022-09-09T12:44:26;7.03;;;1.10;;
41693;SDS011;27377;50.666;9.150;2022-09-09T12:46:55;5.60;;;1.15;;
41693;SDS011;27377;50.666;9.150;2022-09-09T12:49:34;6.53;;;0.90;;
41693;SDS011;27377;50.666;9.150;2022-09-09T12:54:57;3.88;;;0.90;;
41693;SDS011;27377;50.666;9.150;2022-09-09T12:57:24;4.03;;;1.10;;
41693;SDS011;27377;50.666;9.150;2022-09-09T12:59:51;4.90;;;1.02;;
41693;SDS011;27377;50.666;9.150;2022-09-09T13:02:19;4.30;;;0.90;;
41693;SDS011;27377;50.666;9.150;2022-09-09T13:04:45;4.25;;;1.00;;
41693;SDS011;27377;50.666;9.150;2022-09-09T13:07:12;6.22;;;1.20;;
41693;SDS011;27377;50.666;9.150;2022-09-09T13:09:38;4.70;;;1.10;;
41693;SDS011;27377;50.666;9.150;2022-09-09T13:12:05;4.65;;;0.93;;
41693;SDS011;27377;50.666;9.150;2022-09-09T13:14:35;4.43;;;1.15;;
41693;SDS011;27377;50.666;9.150;2022-09-09T13:17:05;4.05;;;1.00;;
41693;SDS011;27377;50.666;9.150;2022-09-09T13:19:35;5.32;;;1.00;;
41693;SDS011;27377;50.666;9.150;2022-09-09T13:25:06;4.18;;;1.10;;
41693;SDS011;27377;50.666;9.150;2022-09-09T13:27:36;4.30;;;1.20;;
41693;SDS011;27377;50.666;9.150;2022-09-09T13:35:52;5.28;;;1.33;;
41693;SDS011;27377;50.666;9.150;2022-09-09T13:38:21;6.80;;;1.40;;
41693;SDS011;27377;50.666;9.150;2022-09-09T13:43:27;8.23;;;1.40;;
41693;SDS011;27377;50.666;9.150;2022-09-09T13:45:55;5.50;;;1.30;;
41693;SDS011;27377;50.666;9.150;2022-09-09T13:48:23;5.30;;;1.25;;
41693;SDS011;27377;50.666;9.150;2022-09-09T13:54:12;5.35;;;1.08;;
41693;SDS011;27377;50.666;9.150;2022-09-09T13:56:39;5.55;;;1.20;;
41693;SDS011;27377;50.666;9.150;2022-09-09T13:59:06;5.40;;;1.42;;
41693;SDS011;27377;50.666;9.150;2022-09-09T14:01:35;5.10;;;1.20;;
41693;SDS011;27377;50.666;9.150;2022-09-09T14:04:02;5.15;;;1.10;;
41693;SDS011;27377;50.666;9.150;2022-09-09T14:06:28;4.55;;;1.10;;
41693;SDS011;27377;50.666;9.150;2022-09-09T14:08:54;5.27;;;1.20;;
41693;SDS011;27377;50.666;9.150;2022-09-09T14:11:20;5.03;;;1.02;;
41693;SDS011;27377;50.666;9.150;2022-09-09T14:13:46;5.15;;;1.35;;
41693;SDS011;27377;50.666;9.150;2022-09-09T14:16:14;5.53;;;1.17;;
41693;SDS011;27377;50.666;9.150;2022-09-09T14:18:40;5.63;;;1.02;;
41693;SDS011;27377;50.666;9.150;2022-09-09T14:21:06;5.57;;;1.10;;
41693;SDS011;27377;50.666;9.150;2022-09-09T14:23:33;5.10;;;1.20;;
41693;SDS011;27377;50.666;9.150;2022-09-09T14:25:59;5.35;;;1.02;;
41693;SDS011;27377;50.666;9.150;2022-09-09T14:28:25;6.88;;;1.23;;
41693;SDS011;27377;50.666;9.150;2022-09-09T14:30:50;6.18;;;1.30;;
41693;SDS011;27377;50.666;9.150;2022-09-09T14:33:16;4.38;;;1.00;;
41693;SDS011;27377;50.666;9.150;2022-09-09T14:35:42;4.20;;;1.10;;
41693;SDS011;27377;50.666;9.150;2022-09-09T14:38:09;4.57;;;1.00;;
41693;SDS011;27377;50.666;9.150;2022-09-09T14:40:35;4.60;;;0.80;;
41693;SDS011;27377;50.666;9.150;2022-09-09T14:43:02;3.75;;;0.93;;
41693;SDS011;27377;50.666;9.150;2022-09-09T14:45:28;3.78;;;0.98;;
41693;SDS011;27377;50.666;9.150;2022-09-09T14:47:54;3.28;;;0.80;;
41693;SDS011;27377;50.666;9.150;2022-09-09T14:50:20;4.80;;;0.90;;
41693;SDS011;27377;50.666;9.150;2022-09-09T14:52:46;7.55;;;0.95;;
41693;SDS011;27377;50.666;9.150;2022-09-09T14:55:12;3.60;;;0.70;;
41693;SDS011;27377;50.666;9.150;2022-09-09T14:57:38;4.32;;;0.93;;
41693;SDS011;27377;50.666;9.150;2022-09-09T15:00:05;2.57;;;0.70;;
41693;SDS011;27377;50.666;9.150;2022-09-09T15:02:32;4.65;;;0.90;;
41693;SDS011;27377;50.666;9.150;2022-09-09T15:04:57;6.15;;;0.90;;
41693;SDS011;27377;50.666;9.150;2022-09-09T15:07:26;4.82;;;0.88;;
41693;SDS011;27377;50.666;9.150;2022-09-09T15:09:53;3.63;;;0.80;;
41693;SDS011;27377;50.666;9.150;2022-09-09T15:12:19;3.77;;;0.80;;
41693;SDS011;27377;50.666;9.150;2022-09-09T15:14:45;2.67;;;0.68;;
41693;SDS011;27377;50.666;9.150;2022-09-09T15:17:11;2.38;;;0.60;;
41693;SDS011;27377;50.666;9.150;2022-09-09T15:19:37;3.67;;;0.80;;
41693;SDS011;27377;50.666;9.150;2022-09-09T15:22:03;3.97;;;0.73;;
41693;SDS011;27377;50.666;9.150;2022-09-09T15:24:32;3.33;;;0.60;;
41693;SDS011;27377;50.666;9.150;2022-09-09T15:26:59;3.22;;;0.70;;
41693;SDS011;27377;50.666;9.150;2022-09-09T15:29:25;4.25;;;0.90;;
41693;SDS011;27377;50.666;9.150;2022-09-09T15:31:51;2.35;;;0.70;;
41693;SDS011;27377;50.666;9.150;2022-09-09T15:34:19;3.53;;;0.80;;
41693;SDS011;27377;50.666;9.150;2022-09-09T15:36:45;3.23;;;0.90;;
41693;SDS011;27377;50.666;9.150;2022-09-09T15:39:14;4.38;;;0.73;;
41693;SDS011;27377;50.666;9.150;2022-09-09T15:41:42;3.80;;;0.70;;
41693;SDS011;27377;50.666;9.150;2022-09-09T15:44:09;3.45;;;0.70;;
41693;SDS011;27377;50.666;9.150;2022-09-09T15:46:44;3.60;;;0.60;;
41693;SDS011;27377;50.666;9.150;2022-09-09T15:49:12;1.97;;;0.50;;
41693;SDS011;27377;50.666;9.150;2022-09-09T15:51:40;3.42;;;0.77;;
41693;SDS011;27377;50.666;9.150;2022-09-09T15:54:08;2.80;;;0.70;;
41693;SDS011;27377;50.666;9.150;2022-09-09T15:56:34;4.95;;;0.77;;
41693;SDS011;27377;50.666;9.150;2022-09-09T15:59:00;4.75;;;0.70;;
41693;SDS011;27377;50.666;9.150;2022-09-09T16:01:28;2.60;;;0.63;;
41693;SDS011;27377;50.666;9.150;2022-09-09T16:03:55;4.35;;;0.80;;
41693;SDS011;27377;50.666;9.150;2022-09-09T16:06:22;2.75;;;0.68;;
41693;SDS011;27377;50.666;9.150;2022-09-09T16:08:51;2.47;;;0.60;;
41693;SDS011;27377;50.666;9.150;2022-09-09T16:11:24;3.80;;;0.70;;
41693;SDS011;27377;50.666;9.150;2022-09-09T16:13:52;4.07;;;0.80;;
41693;SDS011;27377;50.666;9.150;2022-09-09T16:16:20;2.90;;;0.60;;
41693;SDS011;27377;50.666;9.150;2022-09-09T16:18:51;3.10;;;0.80;;
41693;SDS011;27377;50.666;9.150;2022-09-09T16:21:23;4.88;;;0.70;;
41693;SDS011;27377;50.666;9.150;2022-09-09T16:23:56;2.30;;;0.60;;
41693;SDS011;27377;50.666;9.150;2022-09-09T16:26:27;2.53;;;0.50;;
41693;SDS011;27377;50.666;9.150;2022-09-09T16:28:54;2.97;;;0.70;;
41693;SDS011;27377;50.666;9.150;2022-09-09T16:31:22;2.90;;;0.80;;
41693;SDS011;27377;50.666;9.150;2022-09-09T16:33:48;2.75;;;0.80;;
41693;SDS011;27377;50.666;9.150;2022-09-09T16:36:16;3.67;;;0.90;;
41693;SDS011;27377;50.666;9.150;2022-09-09T16:38:46;3.83;;;0.70;;
41693;SDS011;27377;50.666;9.150;2022-09-09T16:41:12;3.43;;;0.80;;
41693;SDS011;27377;50.666;9.150;2022-09-09T16:43:39;3.75;;;0.77;;
41693;SDS011;27377;50.666;9.150;2022-09-09T16:46:13;3.60;;;0.65;;
41693;SDS011;27377;50.666;9.150;2022-09-09T16:48:40;2.95;;;0.70;;
41693;SDS011;27377;50.666;9.150;2022-09-09T16:51:08;2.92;;;0.75;;
41693;SDS011;27377;50.666;9.150;2022-09-09T16:53:36;3.00;;;0.68;;
41693;SDS011;27377;50.666;9.150;2022-09-09T16:56:09;4.67;;;0.80;;
41693;SDS011;27377;50.666;9.150;2022-09-09T16:58:41;3.65;;;0.70;;
41693;SDS011;27377;50.666;9.150;2022-09-09T17:01:08;3.22;;;0.70;;
41693;SDS011;27377;50.666;9.150;2022-09-09T17:03:36;4.25;;;0.80;;
41693;SDS011;27377;50.666;9.150;2022-09-09T17:06:03;3.05;;;0.80;;
41693;SDS011;27377;50.666;9.150;2022-09-09T17:08:33;3.20;;;0.80;;
41693;SDS011;27377;50.666;9.150;2022-09-09T17:10:58;4.60;;;0.80;;
41693;SDS011;27377;50.666;9.150;2022-09-09T17:13:25;3.30;;;0.75;;
41693;SDS011;27377;50.666;9.150;2022-09-09T17:15:51;3.90;;;0.90;;
41693;SDS011;27377;50.666;9.150;2022-09-09T17:18:16;4.50;;;1.00;;
41693;SDS011;27377;50.666;9.150;2022-09-09T17:20:42;2.80;;;0.67;;
41693;SDS011;27377;50.666;9.150;2022-09-09T17:23:09;5.25;;;1.00;;
41693;SDS011;27377;50.666;9.150;2022-09-09T17:25:36;3.80;;;0.70;;
41693;SDS011;27377;50.666;9.150;2022-09-09T17:28:03;4.20;;;0.70;;
41693;SDS011;27377;50.666;9.150;2022-09-09T17:30:29;3.63;;;0.90;;
41693;SDS011;27377;50.666;9.150;2022-09-09T17:32:58;3.50;;;0.80;;